Tannehill, Louisiana
Current Conditions -  °F | °C
As of 10:15 AM on Sunday 25 Jan 2015 (Local Time) from KRSN Reporting Station
Clear Clear  
Wind Chill: 54°   Ceiling: Unl
Heat Index: 54°   Visibility: 10mi
Dew Point: 39°   Wind: 8mph
Humidity: 57%   Direction: 260°W
Pressure: 29.91"   Gusts: 17mph
Location:  32.0727°N, 92.6697°W
Report Text: KRSN 251615Z AUTO 26007G15KT 220V280 10SM CLR 12/04 A2991 RMK AO2 T01240040
Loading
Personal Weather Stations






























Interactive Weather Map New forecast layout! Learn more

10-Day Weather Forecast

Advertisements
Track Severe Weather on mobile